createdAt,value
2022-11-15T00:00:32.744Z,9.58
2022-11-15T00:01:32.677Z,9.61
2022-11-15T00:02:32.701Z,9.65
2022-11-15T00:03:32.929Z,9.66
2022-11-15T00:04:32.771Z,9.65
2022-11-15T00:05:32.668Z,9.66
2022-11-15T00:06:32.625Z,9.68
2022-11-15T00:07:54.536Z,9.71
2022-11-15T00:08:33.583Z,9.75
2022-11-15T00:09:32.587Z,9.79
2022-11-15T00:10:32.608Z,9.84
2022-11-15T00:11:32.563Z,9.87
2022-11-15T00:12:32.575Z,9.86
2022-11-15T00:13:33.049Z,9.86
2022-11-15T00:14:32.521Z,9.84
2022-11-15T00:15:32.534Z,9.83
2022-11-15T00:16:32.505Z,9.83
2022-11-15T00:17:32.540Z,9.84
2022-11-15T00:18:32.531Z,9.87
2022-11-15T00:19:32.520Z,9.91
2022-11-15T00:20:32.466Z,9.94
2022-11-15T00:21:32.465Z,9.97
2022-11-15T00:22:32.451Z,10.02
2022-11-15T00:23:32.757Z,10.07
2022-11-15T00:24:32.414Z,10.11
2022-11-15T00:25:36.341Z,10.14
2022-11-15T00:26:32.394Z,10.15
2022-11-15T00:27:32.406Z,10.15
2022-11-15T00:28:32.374Z,10.17
2022-11-15T00:29:32.364Z,10.17
2022-11-15T00:30:32.385Z,10.17
2022-11-15T00:31:32.369Z,10.18
2022-11-15T00:32:32.401Z,10.18
2022-11-15T00:33:32.818Z,10.20
2022-11-15T00:34:32.313Z,10.22
2022-11-15T00:35:32.591Z,10.20
2022-11-15T00:36:32.267Z,10.20
2022-11-15T00:37:32.353Z,10.17
2022-11-15T00:38:32.252Z,10.18
2022-11-15T00:39:32.239Z,10.15
2022-11-15T00:40:32.291Z,10.17
2022-11-15T00:41:32.261Z,10.18
2022-11-15T00:42:32.222Z,10.18
2022-11-15T00:43:32.642Z,10.18
2022-11-15T00:44:37.064Z,10.20
2022-11-15T00:45:32.194Z,10.22
2022-11-15T00:46:35.982Z,10.25
2022-11-15T00:47:32.192Z,10.26
2022-11-15T00:48:32.180Z,10.27
2022-11-15T00:49:32.150Z,10.32
2022-11-15T00:50:32.192Z,10.34
2022-11-15T00:51:32.162Z,10.36
2022-11-15T00:52:32.244Z,10.36
2022-11-15T00:53:32.716Z,10.38
2022-11-15T00:54:32.178Z,10.40
2022-11-15T00:55:32.106Z,10.41
2022-11-15T00:56:32.078Z,10.42
2022-11-15T00:57:32.070Z,10.42
2022-11-15T00:58:32.071Z,10.44
2022-11-15T00:59:32.172Z,10.45
2022-11-15T01:00:32.201Z,10.45
2022-11-15T01:01:32.154Z,10.51
2022-11-15T01:02:32.020Z,10.53
2022-11-15T01:03:32.362Z,10.56
2022-11-15T01:04:32.019Z,10.59
2022-11-15T01:05:32.065Z,10.59
2022-11-15T01:06:32.166Z,10.61
2022-11-15T01:07:32.003Z,10.63
2022-11-15T01:08:31.995Z,10.67
2022-11-15T01:09:32.012Z,10.70
2022-11-15T01:10:31.960Z,10.71
2022-11-15T01:11:32.011Z,10.76
2022-11-15T01:12:31.901Z,10.79
2022-11-15T01:13:32.256Z,10.81
2022-11-15T01:14:31.935Z,10.84
2022-11-15T01:15:31.902Z,10.86
2022-11-15T01:16:31.856Z,10.85
2022-11-15T01:17:31.914Z,10.86
2022-11-15T01:18:31.832Z,10.89
2022-11-15T01:19:31.890Z,10.92
2022-11-15T01:20:31.844Z,10.96
2022-11-15T01:21:31.962Z,10.97
2022-11-15T01:22:31.832Z,10.99
2022-11-15T01:23:32.130Z,11.00
2022-11-15T01:24:31.795Z,11.03
2022-11-15T01:31:19.998Z,11.09
2022-11-15T01:32:20.122Z,11.11
2022-11-15T01:32:58.414Z,11.17
2022-11-15T01:34:10.782Z,11.21
2022-11-15T01:35:24.660Z,11.25
2022-11-15T01:45:40.317Z,11.32
2022-11-15T01:46:27.043Z,11.28
2022-11-15T01:47:21.636Z,11.28
2022-11-15T01:48:39.127Z,11.28
2022-11-15T01:49:22.525Z,11.28
2022-11-15T02:49:57.614Z,11.85
2022-11-15T02:55:54.385Z,11.85
2022-11-15T03:00:22.987Z,11.91
2022-11-15T03:00:39.023Z,11.94
2022-11-15T03:01:41.234Z,11.95
2022-11-15T03:02:38.780Z,11.94
2022-11-15T03:14:10.308Z,12.05
2022-11-15T03:15:09.140Z,12.05
2022-11-15T03:15:46.845Z,12.05
2022-11-15T03:16:47.188Z,12.07
2022-11-15T03:17:47.674Z,12.07
2022-11-15T03:18:47.027Z,12.07
2022-11-15T03:19:46.784Z,12.10
2022-11-15T03:20:49.878Z,12.09
2022-11-15T03:21:59.188Z,12.10
2022-11-15T03:22:47.225Z,12.13
2022-11-15T03:23:46.766Z,12.13
2022-11-15T03:24:47.716Z,12.16
2022-11-15T03:25:46.816Z,12.16
2022-11-15T03:26:49.458Z,12.17
2022-11-15T03:27:47.751Z,12.16
2022-11-15T03:28:46.761Z,12.17
2022-11-15T03:29:46.665Z,12.16
2022-11-15T03:31:05.167Z,12.16
2022-11-15T03:31:50.574Z,12.19
2022-11-15T03:32:47.082Z,12.17
2022-11-15T03:33:47.184Z,12.16
2022-11-15T03:34:46.878Z,12.17
2022-11-15T03:35:49.675Z,12.19
2022-11-15T03:36:47.418Z,12.17
2022-11-15T03:37:47.969Z,12.17
2022-11-15T03:38:48.726Z,12.17
2022-11-15T03:39:46.875Z,12.14
2022-11-15T03:40:48.673Z,12.13
2022-11-15T03:42:11.651Z,12.10
2022-11-15T03:42:47.396Z,12.09
2022-11-15T03:43:47.728Z,12.09
2022-11-15T03:44:47.149Z,12.09
2022-11-15T03:45:46.657Z,12.05
2022-11-15T03:46:50.160Z,12.05
2022-11-15T03:47:46.724Z,12.05
2022-11-15T03:48:47.321Z,12.04
2022-11-15T03:49:46.652Z,12.02
2022-11-15T03:50:46.633Z,11.99
2022-11-15T03:51:47.028Z,11.98
2022-11-15T03:52:46.349Z,11.98
2022-11-15T03:53:46.703Z,11.96
2022-11-15T03:54:47.641Z,11.96
2022-11-15T03:55:46.362Z,11.95
2022-11-15T03:56:47.552Z,11.95
2022-11-15T03:57:47.314Z,11.95
2022-11-15T03:58:46.285Z,11.95
2022-11-15T03:59:46.320Z,11.94
2022-11-15T04:00:46.892Z,11.95
2022-11-15T04:01:46.515Z,11.95
2022-11-15T04:02:55.081Z,11.95
2022-11-15T04:03:46.789Z,11.94
2022-11-15T04:04:46.403Z,11.94
2022-11-15T04:05:46.162Z,11.91
2022-11-15T04:06:46.741Z,11.91
2022-11-15T04:07:46.204Z,11.90
2022-11-15T04:08:46.212Z,11.90
2022-11-15T04:09:46.303Z,11.88
2022-11-15T04:10:47.498Z,11.88
2022-11-15T04:11:48.366Z,11.88
2022-11-15T04:12:46.332Z,11.88
2022-11-15T04:14:07.255Z,11.90
2022-11-15T04:14:47.771Z,11.91
2022-11-15T04:15:46.821Z,11.94
2022-11-15T04:16:46.977Z,11.94
2022-11-15T04:17:47.144Z,11.94
2022-11-15T04:18:46.626Z,11.95
2022-11-15T04:19:46.209Z,11.94
2022-11-15T04:20:46.211Z,11.94
2022-11-15T04:21:46.388Z,11.94
2022-11-15T04:22:46.092Z,11.91
2022-11-15T04:23:46.053Z,11.91
2022-11-15T04:24:46.045Z,11.90
2022-11-15T04:25:50.437Z,11.88
2022-11-15T04:26:49.168Z,11.88
2022-11-15T04:27:57.730Z,11.90
2022-11-15T04:28:46.014Z,11.88
2022-11-15T04:30:07.458Z,11.86
2022-11-15T04:30:47.206Z,11.88
2022-11-15T04:31:48.307Z,11.90
2022-11-15T04:32:48.594Z,11.90
2022-11-15T04:33:47.703Z,11.91
2022-11-15T04:35:07.546Z,11.91
2022-11-15T04:35:58.234Z,11.94
2022-11-15T04:36:50.847Z,11.94
2022-11-15T04:37:55.814Z,11.94
2022-11-15T05:01:37.609Z,12.09
2022-11-15T05:19:40.157Z,12.09
2022-11-15T05:27:13.925Z,12.05
2022-11-15T05:28:08.345Z,12.05
2022-11-15T05:29:06.906Z,12.05
2022-11-15T05:30:06.886Z,12.04
2022-11-15T05:31:06.876Z,12.02
2022-11-15T05:32:06.852Z,12.01
2022-11-15T05:33:06.875Z,11.98
2022-11-15T05:34:06.825Z,11.99
2022-11-15T05:35:06.816Z,11.98
2022-11-15T05:36:06.812Z,11.98
2022-11-15T05:37:06.800Z,11.98
2022-11-15T05:38:06.784Z,12.01
2022-11-15T05:39:08.915Z,11.99
2022-11-15T05:40:06.761Z,12.01
2022-11-15T05:41:06.751Z,11.99
2022-11-15T05:42:06.738Z,12.01
2022-11-15T05:43:06.735Z,12.01
2022-11-15T05:44:06.717Z,12.01
2022-11-15T05:45:06.724Z,12.02
2022-11-15T05:46:06.704Z,12.02
2022-11-15T05:47:06.715Z,12.02
2022-11-15T05:48:06.676Z,12.02
2022-11-15T05:49:06.666Z,12.02
2022-11-15T05:50:06.678Z,12.01
2022-11-15T05:51:06.644Z,12.02
2022-11-15T05:52:06.631Z,12.04
2022-11-15T05:53:06.627Z,12.02
2022-11-15T05:54:06.632Z,12.02
2022-11-15T05:55:06.603Z,12.02
2022-11-15T05:56:06.598Z,12.04
2022-11-15T05:57:06.601Z,12.05
2022-11-15T05:58:06.583Z,12.09
2022-11-15T05:59:06.577Z,12.07
2022-11-15T06:00:06.548Z,12.09
2022-11-15T06:01:06.529Z,12.09
2022-11-15T06:02:06.629Z,12.10
2022-11-15T06:03:06.517Z,12.10
2022-11-15T06:04:06.608Z,12.10
2022-11-15T06:05:06.502Z,12.10
2022-11-15T06:06:06.487Z,12.10
2022-11-15T06:07:06.503Z,12.10
2022-11-15T06:08:06.469Z,12.10
2022-11-15T06:09:06.476Z,12.10
2022-11-15T06:10:06.445Z,12.10
2022-11-15T06:11:06.456Z,12.09
2022-11-15T06:12:06.424Z,12.09
2022-11-15T06:13:06.410Z,12.09
2022-11-15T06:14:06.410Z,12.09
2022-11-15T06:15:06.383Z,12.09
2022-11-15T06:16:06.381Z,12.09
2022-11-15T06:17:11.113Z,12.09
2022-11-15T06:18:07.364Z,12.09
2022-11-15T06:19:06.390Z,12.10
2022-11-15T06:20:06.338Z,12.10
2022-11-15T06:21:06.333Z,12.13
2022-11-15T06:22:06.308Z,12.12
2022-11-15T06:23:06.311Z,12.12
2022-11-15T06:24:06.309Z,12.12
2022-11-15T06:25:06.281Z,12.13
2022-11-15T06:26:06.296Z,12.12
2022-11-15T06:27:06.264Z,12.13
2022-11-15T06:28:06.280Z,12.14
2022-11-15T06:29:06.367Z,12.14
2022-11-15T06:30:06.259Z,12.16
2022-11-15T06:31:06.235Z,12.16
2022-11-15T06:32:06.199Z,12.16
2022-11-15T06:33:06.196Z,12.16
2022-11-15T06:34:06.182Z,12.14
2022-11-15T06:35:06.497Z,12.16
2022-11-15T06:36:06.191Z,12.14
2022-11-15T06:37:06.161Z,12.16
2022-11-15T06:38:06.152Z,12.16
2022-11-15T06:39:06.133Z,12.16
2022-11-15T06:40:06.108Z,12.17
2022-11-15T06:41:06.106Z,12.17
2022-11-15T06:42:06.091Z,12.19
2022-11-15T06:43:06.087Z,12.20
2022-11-15T06:44:06.079Z,12.20
2022-11-15T06:45:06.069Z,12.20
2022-11-15T06:46:06.060Z,12.23
2022-11-15T06:47:06.038Z,12.28
2022-11-15T06:48:06.028Z,12.31
2022-11-15T06:49:09.621Z,12.34
2022-11-15T06:50:06.016Z,12.37
2022-11-15T06:51:06.025Z,12.35
2022-11-15T06:52:05.993Z,12.35
2022-11-15T06:53:05.985Z,12.38
2022-11-15T06:54:05.997Z,12.39
2022-11-15T06:55:05.966Z,12.39
2022-11-15T06:56:05.942Z,12.42
2022-11-15T06:57:05.928Z,12.46
2022-11-15T06:58:05.941Z,12.47
2022-11-15T06:59:05.909Z,12.49
2022-11-15T07:00:05.912Z,12.50
2022-11-15T07:01:05.957Z,12.53
2022-11-15T07:02:05.878Z,12.54
2022-11-15T07:03:05.875Z,12.57
2022-11-15T07:04:05.861Z,12.60
2022-11-15T07:05:05.862Z,12.60
2022-11-15T07:06:07.760Z,12.62
2022-11-15T07:07:05.895Z,12.62
2022-11-15T07:08:05.840Z,12.62
2022-11-15T07:09:05.819Z,12.62
2022-11-15T07:10:05.810Z,12.60
2022-11-15T07:11:05.779Z,12.59
2022-11-15T07:12:07.873Z,12.60
2022-11-15T07:13:05.770Z,12.59
2022-11-15T07:14:05.761Z,12.59
2022-11-15T07:15:05.737Z,12.59
2022-11-15T07:16:05.737Z,12.56
2022-11-15T07:17:05.733Z,12.56
2022-11-15T07:18:05.746Z,12.56
2022-11-15T07:19:05.721Z,12.56
2022-11-15T07:20:05.689Z,12.56
2022-11-15T07:21:05.682Z,12.59
2022-11-15T07:22:05.672Z,12.59
2022-11-15T07:23:05.657Z,12.62
2022-11-15T07:24:05.649Z,12.65
2022-11-15T07:25:05.644Z,12.68
2022-11-15T07:26:05.630Z,12.71
2022-11-15T07:27:05.651Z,12.75
2022-11-15T07:28:05.613Z,12.79
2022-11-15T07:29:05.651Z,12.85
2022-11-15T07:30:05.580Z,12.90
2022-11-15T07:31:05.587Z,12.95
2022-11-15T07:32:05.573Z,13.00
2022-11-15T07:33:05.548Z,13.04
2022-11-15T07:34:05.539Z,13.08
2022-11-15T07:35:05.530Z,13.14
2022-11-15T07:36:05.529Z,13.17
2022-11-15T07:37:05.528Z,13.22
2022-11-15T07:38:05.509Z,13.28
2022-11-15T07:39:05.560Z,13.28
2022-11-15T07:40:05.497Z,13.26
2022-11-15T07:41:05.464Z,13.25
2022-11-15T07:42:05.470Z,13.23
2022-11-15T07:43:05.449Z,13.25
2022-11-15T07:44:05.448Z,13.25
2022-11-15T07:45:05.421Z,13.25
2022-11-15T07:46:05.431Z,13.26
2022-11-15T07:47:05.397Z,13.26
2022-11-15T07:48:05.390Z,13.25
2022-11-15T07:49:05.412Z,13.25
2022-11-15T07:50:05.367Z,13.25
2022-11-15T07:51:08.790Z,13.25
2022-11-15T07:52:06.364Z,13.23
2022-11-15T07:53:05.330Z,13.25
2022-11-15T07:54:05.345Z,13.25
2022-11-15T07:55:05.327Z,13.25
2022-11-15T07:56:05.309Z,13.23
2022-11-15T07:57:07.611Z,13.23
2022-11-15T07:58:05.276Z,13.25
2022-11-15T07:59:05.272Z,13.25
2022-11-15T08:00:05.275Z,13.25
2022-11-15T08:01:05.449Z,13.26
2022-11-15T08:02:05.325Z,13.26
2022-11-15T08:03:05.227Z,13.28
2022-11-15T08:04:05.244Z,13.30
2022-11-15T08:05:05.223Z,13.30
2022-11-15T08:06:05.217Z,13.30
2022-11-15T08:07:05.217Z,13.33
2022-11-15T08:08:05.737Z,13.32
2022-11-15T08:09:05.164Z,13.33
2022-11-15T08:10:05.238Z,13.36
2022-11-15T08:11:05.168Z,13.39
2022-11-15T08:12:05.135Z,13.38
2022-11-15T08:13:05.180Z,13.38
2022-11-15T08:14:05.129Z,13.38
2022-11-15T08:15:05.109Z,13.41
2022-11-15T08:16:05.109Z,13.42
2022-11-15T08:17:05.090Z,13.45
2022-11-15T08:18:05.054Z,13.45
2022-11-15T08:19:05.060Z,13.48
2022-11-15T08:20:05.052Z,13.51
2022-11-15T08:21:05.057Z,13.54
2022-11-15T08:22:05.015Z,13.57
2022-11-15T08:23:04.995Z,13.64
2022-11-15T08:24:05.006Z,13.71
2022-11-15T08:25:05.002Z,13.77
2022-11-15T08:26:04.977Z,13.84
2022-11-15T08:27:05.011Z,13.87
2022-11-15T08:28:04.959Z,13.91
2022-11-15T08:29:04.956Z,13.97
2022-11-15T08:30:04.947Z,14.04
2022-11-15T08:31:04.927Z,14.04
2022-11-15T08:32:04.942Z,14.06
2022-11-15T08:33:04.906Z,14.12
2022-11-15T08:34:04.899Z,14.18
2022-11-15T08:35:04.881Z,14.22
2022-11-15T08:36:04.877Z,14.27
2022-11-15T08:37:04.854Z,14.28
2022-11-15T08:38:04.854Z,14.35
2022-11-15T08:39:06.597Z,14.35
2022-11-15T08:40:04.832Z,14.32
2022-11-15T08:41:04.827Z,14.36
2022-11-15T08:42:04.822Z,14.40
2022-11-15T08:43:04.802Z,14.40
2022-11-15T08:44:04.777Z,14.47
2022-11-15T08:45:04.778Z,14.54
2022-11-15T08:46:04.766Z,14.51
2022-11-15T08:47:04.765Z,14.51
2022-11-15T08:48:04.747Z,14.52
2022-11-15T08:49:04.748Z,14.55
2022-11-15T08:50:04.742Z,14.57
2022-11-15T08:51:04.808Z,14.57
2022-11-15T08:52:04.706Z,14.58
2022-11-15T08:53:04.693Z,14.61
2022-11-15T08:54:04.687Z,14.64
2022-11-15T08:55:04.664Z,14.65
2022-11-15T08:56:04.670Z,14.69
2022-11-15T08:57:04.658Z,14.69
2022-11-15T08:58:04.643Z,14.73
2022-11-15T08:59:04.660Z,14.77
2022-11-15T09:00:04.639Z,14.78
2022-11-15T09:01:04.676Z,14.77
2022-11-15T09:02:04.646Z,14.70
2022-11-15T09:03:04.583Z,14.70
2022-11-15T09:04:04.587Z,14.73
2022-11-15T09:05:04.570Z,14.81
2022-11-15T09:06:04.552Z,14.91
2022-11-15T09:07:04.589Z,14.98
2022-11-15T09:08:19.124Z,15.06
2022-11-15T09:09:05.523Z,15.16
2022-11-15T09:10:06.279Z,15.10
2022-11-15T09:11:04.497Z,15.02
2022-11-15T09:12:04.497Z,14.99
2022-11-15T09:13:04.489Z,14.94
2022-11-15T09:14:04.476Z,14.91
2022-11-15T09:15:04.467Z,14.92
2022-11-15T09:16:04.462Z,15.07
2022-11-15T09:17:04.430Z,15.31
2022-11-15T09:18:04.439Z,15.31
2022-11-15T09:20:05.431Z,15.20
2022-11-15T09:21:04.388Z,15.57
2022-11-15T09:22:04.378Z,15.94
2022-11-15T09:23:04.398Z,16.08
2022-11-15T09:24:04.366Z,16.45
2022-11-15T09:25:07.335Z,16.68
2022-11-15T09:26:05.356Z,16.86
2022-11-15T09:27:04.331Z,17.06
2022-11-15T09:28:04.326Z,17.11
2022-11-15T09:29:04.323Z,16.89
2022-11-15T09:30:05.149Z,16.64
2022-11-15T09:31:04.306Z,16.42
2022-11-15T09:32:04.280Z,16.21
2022-11-15T09:33:04.292Z,16.12
2022-11-15T09:34:04.270Z,16.01
2022-11-15T09:35:04.232Z,15.97
2022-11-15T09:36:04.229Z,15.97
2022-11-15T09:37:04.216Z,16.00
2022-11-15T09:38:04.201Z,15.97
2022-11-15T09:39:04.199Z,15.94
2022-11-15T09:40:04.200Z,15.92
2022-11-15T09:41:04.391Z,15.94
2022-11-15T09:42:04.246Z,15.92
2022-11-15T09:43:04.187Z,15.96
2022-11-15T09:44:04.152Z,16.01
2022-11-15T09:45:04.154Z,16.01
2022-11-15T09:46:04.157Z,16.00
2022-11-15T09:47:04.106Z,15.94
2022-11-15T09:48:04.098Z,16.01
2022-11-15T09:49:04.078Z,16.02
2022-11-15T09:50:05.073Z,16.02
2022-11-15T09:51:04.070Z,16.01
2022-11-15T09:52:04.061Z,15.97
2022-11-15T09:53:04.073Z,15.96
2022-11-15T09:54:50.964Z,15.94
2022-11-15T09:55:05.029Z,15.94
2022-11-15T09:56:04.022Z,16.01
2022-11-15T09:57:04.002Z,16.05
2022-11-15T09:58:03.996Z,16.05
2022-11-15T09:59:03.990Z,16.09
2022-11-15T10:00:30.766Z,16.12
2022-11-15T10:01:04.972Z,16.07
2022-11-15T10:02:03.984Z,16.01
2022-11-15T10:03:03.973Z,15.97
2022-11-15T10:04:07.843Z,16.02
2022-11-15T10:05:04.923Z,16.07
2022-11-15T10:06:03.942Z,16.12
2022-11-15T10:07:03.964Z,16.17
2022-11-15T10:08:03.895Z,16.15
2022-11-15T10:09:03.896Z,16.20
2022-11-15T10:10:03.858Z,16.21
2022-11-15T10:12:05.830Z,16.14
2022-11-15T10:13:03.835Z,16.24
2022-11-15T10:14:03.821Z,16.25
2022-11-15T10:15:03.811Z,16.31
2022-11-15T10:16:03.793Z,16.20
2022-11-15T10:17:03.785Z,16.09
2022-11-15T10:18:03.776Z,16.09
2022-11-15T10:19:03.767Z,16.12
2022-11-15T10:20:05.941Z,16.09
2022-11-15T10:21:03.764Z,16.11
2022-11-15T10:22:03.730Z,16.12
2022-11-15T10:23:03.746Z,16.09
2022-11-15T10:24:03.743Z,16.07
2022-11-15T10:25:03.703Z,16.07
2022-11-15T10:26:06.845Z,16.07
2022-11-15T10:27:03.690Z,16.12
2022-11-15T10:28:03.671Z,16.14
2022-11-15T10:29:03.662Z,16.14
2022-11-15T10:30:03.650Z,16.12
2022-11-15T10:31:03.646Z,16.14
2022-11-15T10:32:03.626Z,16.14
2022-11-15T10:33:03.624Z,16.11
2022-11-15T10:34:03.598Z,16.09
2022-11-15T10:35:03.619Z,16.15
2022-11-15T10:36:03.580Z,16.24
2022-11-15T10:37:03.577Z,16.34
2022-11-15T10:38:03.569Z,16.42
2022-11-15T10:39:03.556Z,16.46
2022-11-15T10:40:03.540Z,16.42
2022-11-15T10:41:03.521Z,16.33
2022-11-15T10:42:09.574Z,16.25
2022-11-15T10:43:05.493Z,16.21
2022-11-15T10:44:03.490Z,16.25
2022-11-15T10:45:03.502Z,16.33
2022-11-15T10:46:24.707Z,16.34
2022-11-15T10:47:04.476Z,16.33
2022-11-15T10:48:03.450Z,16.34
2022-11-15T10:49:03.461Z,16.38
2022-11-15T10:50:03.430Z,16.41
2022-11-15T10:51:03.422Z,16.39
2022-11-15T10:52:03.413Z,16.38
2022-11-15T10:53:03.402Z,16.28
2022-11-15T10:54:05.662Z,16.30
2022-11-15T10:55:04.383Z,16.30
2022-11-15T10:56:03.359Z,16.34
2022-11-15T10:57:03.372Z,16.35
2022-11-15T10:58:03.360Z,16.42
2022-11-15T10:59:03.330Z,16.46
2022-11-15T11:00:03.322Z,16.57
2022-11-15T11:01:03.371Z,16.63
2022-11-15T11:02:03.313Z,16.66
2022-11-15T11:03:03.303Z,16.68
2022-11-15T11:04:03.303Z,16.73
2022-11-15T11:05:03.276Z,16.75
2022-11-15T11:06:03.243Z,16.81
2022-11-15T11:07:03.311Z,16.85
2022-11-15T11:08:03.256Z,16.81
2022-11-15T11:09:03.257Z,16.88
2022-11-15T11:10:03.632Z,16.96
2022-11-15T11:11:03.978Z,17.11
2022-11-15T11:12:03.191Z,17.31
2022-11-15T11:13:03.216Z,17.44
2022-11-15T11:14:03.400Z,17.40
2022-11-15T11:15:03.165Z,17.46
2022-11-15T11:16:03.150Z,17.56
2022-11-15T11:17:03.135Z,17.58
2022-11-15T11:18:03.148Z,17.63
2022-11-15T11:19:03.117Z,17.62
2022-11-15T11:20:03.114Z,17.48
2022-11-15T11:21:03.125Z,17.40
2022-11-15T11:22:03.111Z,17.34
2022-11-15T11:23:03.087Z,17.31
2022-11-15T11:24:03.067Z,17.41
2022-11-15T11:25:03.064Z,17.43
2022-11-15T11:26:03.402Z,17.46
2022-11-15T11:27:03.047Z,17.55
2022-11-15T11:28:03.042Z,17.68
2022-11-15T11:29:03.035Z,17.75
2022-11-15T11:30:03.011Z,17.82
2022-11-15T11:31:03.011Z,17.96
2022-11-15T11:32:02.991Z,17.96
2022-11-15T11:33:02.988Z,17.97
2022-11-15T11:34:02.958Z,17.92
2022-11-15T11:35:02.965Z,17.93
2022-11-15T11:36:02.943Z,17.95
2022-11-15T11:37:02.953Z,18.02
2022-11-15T11:38:02.950Z,18.07
2022-11-15T11:39:02.916Z,18.08
2022-11-15T11:40:07.486Z,18.11
2022-11-15T11:41:03.899Z,17.97
2022-11-15T11:42:02.873Z,17.95
2022-11-15T11:43:02.868Z,17.84
2022-11-15T11:44:02.876Z,17.72
2022-11-15T11:45:02.882Z,17.70
2022-11-15T11:46:02.832Z,17.66
2022-11-15T11:47:02.846Z,17.66
2022-11-15T11:48:02.829Z,17.66
2022-11-15T11:49:02.809Z,17.64
2022-11-15T11:50:03.744Z,17.64
2022-11-15T11:51:02.783Z,17.66
2022-11-15T11:52:02.772Z,17.75
2022-11-15T11:53:04.386Z,17.82
2022-11-15T11:54:02.775Z,17.90
2022-11-15T11:55:02.736Z,17.99
2022-11-15T11:56:02.728Z,18.00
2022-11-15T11:57:02.734Z,17.99
2022-11-15T11:58:02.737Z,18.17
2022-11-15T11:59:02.714Z,18.32
2022-11-15T12:00:02.687Z,18.47
2022-11-15T12:01:02.684Z,18.47
2022-11-15T12:02:02.787Z,18.48
2022-11-15T12:03:02.803Z,18.37
2022-11-15T12:04:02.656Z,18.29
2022-11-15T12:05:02.627Z,18.10
2022-11-15T12:06:02.729Z,18.05
2022-11-15T12:07:02.685Z,18.17
2022-11-15T12:08:04.283Z,18.14
2022-11-15T12:09:02.607Z,18.23
2022-11-15T12:10:02.595Z,18.42
2022-11-15T12:11:02.559Z,18.57
2022-11-15T12:12:02.555Z,18.60
2022-11-15T12:13:02.559Z,18.75
2022-11-15T12:14:02.564Z,18.70
2022-11-15T12:15:02.722Z,18.73
2022-11-15T12:16:07.459Z,18.76
2022-11-15T12:17:03.534Z,18.69
2022-11-15T12:18:02.514Z,18.73
2022-11-15T12:19:02.488Z,18.84
2022-11-15T12:20:02.470Z,18.85
2022-11-15T12:21:02.466Z,18.82
2022-11-15T12:22:02.447Z,19.00
2022-11-15T12:23:02.439Z,19.21
2022-11-15T12:24:02.439Z,19.25
2022-11-15T12:25:02.457Z,19.07
2022-11-15T12:26:02.422Z,18.98
2022-11-15T12:27:02.401Z,18.81
2022-11-15T12:28:02.389Z,18.70
2022-11-15T12:29:07.857Z,18.72
2022-11-15T12:30:03.374Z,18.72
2022-11-15T12:31:02.359Z,18.73
2022-11-15T12:32:02.373Z,18.72
2022-11-15T12:33:02.355Z,18.80
2022-11-15T12:34:07.107Z,18.82
2022-11-15T12:35:03.336Z,18.75
2022-11-15T12:36:02.318Z,18.78
2022-11-15T12:37:02.295Z,18.99
2022-11-15T12:38:02.302Z,19.14
2022-11-15T12:39:02.291Z,19.36
2022-11-15T12:40:03.922Z,19.51
2022-11-15T12:41:02.257Z,19.63
2022-11-15T12:42:02.249Z,19.76
2022-11-15T12:43:02.231Z,19.73
2022-11-15T12:44:02.227Z,19.78
2022-11-15T12:45:02.255Z,19.76
2022-11-15T12:46:02.264Z,19.69
2022-11-15T12:47:02.190Z,19.65
2022-11-15T12:48:02.175Z,19.80
2022-11-15T12:49:02.173Z,19.84
2022-11-15T12:50:02.159Z,19.51
2022-11-15T12:51:02.155Z,19.19
2022-11-15T12:52:02.150Z,19.19
2022-11-15T12:53:02.131Z,19.18
2022-11-15T12:54:02.143Z,19.37
2022-11-15T12:55:02.103Z,19.55
2022-11-15T12:56:02.094Z,19.62
2022-11-15T12:57:02.101Z,19.76
2022-11-15T12:58:02.075Z,19.99
2022-11-15T12:59:02.065Z,19.99
2022-11-15T13:00:02.061Z,19.74
2022-11-15T13:01:02.107Z,19.68
2022-11-15T13:02:02.078Z,19.63
2022-11-15T13:03:02.034Z,19.59
2022-11-15T13:04:02.048Z,19.55
2022-11-15T13:05:02.005Z,19.66
2022-11-15T13:06:02.015Z,19.54
2022-11-15T13:07:02.021Z,19.61
2022-11-15T13:08:01.977Z,19.76
2022-11-15T13:09:01.964Z,19.74
2022-11-15T13:10:01.956Z,19.61
2022-11-15T13:11:02.889Z,19.46
2022-11-15T13:12:01.935Z,19.50
2022-11-15T13:13:01.920Z,19.48
2022-11-15T13:14:01.924Z,19.50
2022-11-15T13:15:02.480Z,19.47
2022-11-15T13:16:01.898Z,19.37
2022-11-15T13:17:02.074Z,19.16
2022-11-15T13:18:01.874Z,18.82
2022-11-15T13:19:01.886Z,18.75
2022-11-15T13:20:01.854Z,18.80
2022-11-15T13:21:02.963Z,18.87
2022-11-15T13:22:01.836Z,19.11
2022-11-15T13:23:01.829Z,19.22
2022-11-15T13:24:01.827Z,19.29
2022-11-15T13:25:01.808Z,19.47
2022-11-15T13:26:01.811Z,19.73
2022-11-15T13:27:01.775Z,19.87
2022-11-15T13:28:07.606Z,20.06
2022-11-15T13:29:02.771Z,20.29
2022-11-15T13:30:01.763Z,20.50
2022-11-15T13:31:01.750Z,20.57
2022-11-15T13:32:01.724Z,20.58
2022-11-15T13:33:01.721Z,20.69
2022-11-15T13:34:01.743Z,20.79
2022-11-15T13:35:01.708Z,20.91
2022-11-15T13:36:01.698Z,20.88
2022-11-15T13:37:01.687Z,20.66
2022-11-15T13:38:01.668Z,20.54
2022-11-15T13:39:01.752Z,20.42
2022-11-15T13:40:01.638Z,20.48
2022-11-15T13:41:01.639Z,20.57
2022-11-15T13:42:01.641Z,20.67
2022-11-15T13:43:01.618Z,20.69
2022-11-15T13:44:01.600Z,20.58
2022-11-15T13:45:01.605Z,20.23
2022-11-15T13:46:01.585Z,19.86
2022-11-15T13:47:01.578Z,19.63
2022-11-15T13:48:01.757Z,19.68
2022-11-15T13:49:01.707Z,19.65
2022-11-15T13:50:01.681Z,19.58
2022-11-15T13:51:01.541Z,19.54
2022-11-15T13:52:01.521Z,19.50
2022-11-15T13:53:01.526Z,19.43
2022-11-15T13:54:01.499Z,19.56
2022-11-15T13:55:01.548Z,19.73
2022-11-15T13:56:01.486Z,19.83
2022-11-15T13:57:01.478Z,20.02
2022-11-15T13:58:01.473Z,20.16
2022-11-15T13:59:01.468Z,20.23
2022-11-15T14:00:01.438Z,20.11
2022-11-15T14:01:01.426Z,20.05
2022-11-15T14:02:01.458Z,20.05
2022-11-15T14:03:01.400Z,19.99
2022-11-15T14:04:01.414Z,19.98
2022-11-15T14:05:01.386Z,20.01
2022-11-15T14:06:01.397Z,20.10
2022-11-15T14:07:01.398Z,20.24
2022-11-15T14:08:01.354Z,20.18
2022-11-15T14:09:01.368Z,20.20
2022-11-15T14:10:01.331Z,20.18
2022-11-15T14:11:01.313Z,20.20
2022-11-15T14:12:01.429Z,20.14
2022-11-15T14:13:01.305Z,19.94
2022-11-15T14:14:01.292Z,19.73
2022-11-15T14:15:01.302Z,19.50
2022-11-15T14:16:01.268Z,19.44
2022-11-15T14:17:01.303Z,19.44
2022-11-15T14:18:01.270Z,19.62
2022-11-15T14:19:01.423Z,19.84
2022-11-15T14:20:01.233Z,20.05
2022-11-15T14:21:01.224Z,20.16
2022-11-15T14:22:01.199Z,20.17
2022-11-15T14:23:01.196Z,20.21
2022-11-15T14:24:01.198Z,20.33
2022-11-15T14:25:01.188Z,20.32
2022-11-15T14:26:01.183Z,20.24
2022-11-15T14:27:01.147Z,20.06
2022-11-15T14:28:01.151Z,19.74
2022-11-15T14:29:01.127Z,19.25
2022-11-15T14:30:01.142Z,18.81
2022-11-15T14:31:01.125Z,18.54
2022-11-15T14:32:01.226Z,18.51
2022-11-15T14:33:01.098Z,18.66
2022-11-15T14:34:01.088Z,18.54
2022-11-15T14:35:01.073Z,18.17
2022-11-15T14:36:01.080Z,17.93
2022-11-15T14:37:01.068Z,17.74
2022-11-15T14:38:01.054Z,17.48
2022-11-15T14:39:01.297Z,17.26
2022-11-15T14:40:01.358Z,17.11
2022-11-15T14:41:01.011Z,16.91
2022-11-15T14:42:01.028Z,16.73
2022-11-15T14:43:01.010Z,16.56
2022-11-15T14:44:00.974Z,16.39
2022-11-15T14:45:00.976Z,16.25
2022-11-15T14:46:00.962Z,16.17
2022-11-15T14:47:00.964Z,16.07
2022-11-15T14:48:00.940Z,16.01
2022-11-15T14:49:00.925Z,16.00
2022-11-15T14:50:00.954Z,15.96
2022-11-15T14:51:00.906Z,15.94
2022-11-15T14:52:00.893Z,15.93
2022-11-15T14:53:00.866Z,15.89
2022-11-15T14:54:00.871Z,15.80
2022-11-15T14:55:00.850Z,15.75
2022-11-15T14:56:00.853Z,15.72
2022-11-15T14:57:00.844Z,15.68
2022-11-15T14:58:00.836Z,15.65
2022-11-15T14:59:00.825Z,15.57
2022-11-15T15:00:00.809Z,15.53
2022-11-15T15:01:00.789Z,15.47
2022-11-15T15:02:00.925Z,15.43
2022-11-15T15:03:00.775Z,15.38
2022-11-15T15:04:00.769Z,15.35
2022-11-15T15:05:00.749Z,15.28
2022-11-15T15:06:00.734Z,15.23
2022-11-15T15:07:00.820Z,15.17
2022-11-15T15:08:00.922Z,15.11
2022-11-15T15:09:00.706Z,15.07
2022-11-15T15:10:32.343Z,15.03
2022-11-15T15:11:01.682Z,14.99
2022-11-15T15:12:05.970Z,14.96
2022-11-15T15:13:01.667Z,14.91
2022-11-15T15:14:00.673Z,14.86